sensor_id;sensor_type;location;lat;lon;timestamp;P1;durP1;ratioP1;P2;durP2;ratioP2
23280;SDS011;11809;56.390;-3.266;2023-04-24T00:02:01;1.95;;;1.00;;
23280;SDS011;11809;56.390;-3.266;2023-04-24T00:04:28;3.78;;;0.90;;
23280;SDS011;11809;56.390;-3.266;2023-04-24T00:06:55;2.30;;;1.00;;
23280;SDS011;11809;56.390;-3.266;2023-04-24T00:09:23;1.83;;;1.00;;
23280;SDS011;11809;56.390;-3.266;2023-04-24T00:11:50;2.05;;;0.90;;
23280;SDS011;11809;56.390;-3.266;2023-04-24T00:14:18;1.60;;;1.00;;
23280;SDS011;11809;56.390;-3.266;2023-04-24T00:16:45;1.75;;;0.90;;
23280;SDS011;11809;56.390;-3.266;2023-04-24T00:19:12;0.90;;;0.77;;
23280;SDS011;11809;56.390;-3.266;2023-04-24T00:21:39;1.73;;;0.70;;
23280;SDS011;11809;56.390;-3.266;2023-04-24T00:24:07;1.58;;;0.90;;
23280;SDS011;11809;56.390;-3.266;2023-04-24T00:26:37;2.30;;;1.00;;
23280;SDS011;11809;56.390;-3.266;2023-04-24T00:29:04;2.08;;;1.00;;
23280;SDS011;11809;56.390;-3.266;2023-04-24T00:31:31;2.97;;;1.00;;
23280;SDS011;11809;56.390;-3.266;2023-04-24T00:34:01;2.35;;;1.00;;
23280;SDS011;11809;56.390;-3.266;2023-04-24T00:36:29;2.17;;;0.82;;
23280;SDS011;11809;56.390;-3.266;2023-04-24T00:38:57;2.22;;;0.95;;
23280;SDS011;11809;56.390;-3.266;2023-04-24T00:41:24;2.05;;;0.98;;
23280;SDS011;11809;56.390;-3.266;2023-04-24T00:43:52;1.40;;;0.80;;
23280;SDS011;11809;56.390;-3.266;2023-04-24T00:46:19;1.20;;;0.90;;
23280;SDS011;11809;56.390;-3.266;2023-04-24T00:48:47;3.22;;;1.05;;
23280;SDS011;11809;56.390;-3.266;2023-04-24T00:51:14;1.30;;;0.80;;
23280;SDS011;11809;56.390;-3.266;2023-04-24T00:53:42;1.63;;;0.80;;
23280;SDS011;11809;56.390;-3.266;2023-04-24T00:56:09;1.60;;;0.80;;
23280;SDS011;11809;56.390;-3.266;2023-04-24T00:58:36;2.00;;;0.85;;
23280;SDS011;11809;56.390;-3.266;2023-04-24T01:01:03;2.42;;;0.60;;
23280;SDS011;11809;56.390;-3.266;2023-04-24T01:03:33;3.22;;;0.90;;
23280;SDS011;11809;56.390;-3.266;2023-04-24T01:06:04;3.47;;;0.80;;
23280;SDS011;11809;56.390;-3.266;2023-04-24T01:08:32;2.65;;;1.00;;
23280;SDS011;11809;56.390;-3.266;2023-04-24T01:11:01;1.30;;;0.68;;
23280;SDS011;11809;56.390;-3.266;2023-04-24T01:13:31;1.63;;;0.85;;
23280;SDS011;11809;56.390;-3.266;2023-04-24T01:15:59;1.42;;;0.80;;
23280;SDS011;11809;56.390;-3.266;2023-04-24T01:18:27;1.77;;;0.88;;
23280;SDS011;11809;56.390;-3.266;2023-04-24T01:20:56;1.52;;;0.65;;
23280;SDS011;11809;56.390;-3.266;2023-04-24T01:23:25;2.15;;;0.80;;
23280;SDS011;11809;56.390;-3.266;2023-04-24T01:25:53;1.30;;;0.73;;
23280;SDS011;11809;56.390;-3.266;2023-04-24T01:28:20;1.25;;;0.73;;
23280;SDS011;11809;56.390;-3.266;2023-04-24T01:30:48;2.05;;;0.80;;
23280;SDS011;11809;56.390;-3.266;2023-04-24T01:33:15;1.92;;;0.70;;
23280;SDS011;11809;56.390;-3.266;2023-04-24T01:35:43;1.38;;;0.80;;
23280;SDS011;11809;56.390;-3.266;2023-04-24T01:38:10;4.25;;;0.80;;
23280;SDS011;11809;56.390;-3.266;2023-04-24T01:40:37;1.88;;;0.75;;
23280;SDS011;11809;56.390;-3.266;2023-04-24T01:43:04;1.35;;;0.50;;
23280;SDS011;11809;56.390;-3.266;2023-04-24T01:45:32;0.98;;;0.70;;
23280;SDS011;11809;56.390;-3.266;2023-04-24T01:47:59;1.77;;;1.00;;
23280;SDS011;11809;56.390;-3.266;2023-04-24T01:50:27;2.30;;;0.70;;
23280;SDS011;11809;56.390;-3.266;2023-04-24T01:52:54;0.98;;;0.70;;
23280;SDS011;11809;56.390;-3.266;2023-04-24T01:55:21;1.50;;;0.55;;
23280;SDS011;11809;56.390;-3.266;2023-04-24T01:57:48;1.35;;;0.70;;
23280;SDS011;11809;56.390;-3.266;2023-04-24T02:00:16;1.10;;;0.70;;
23280;SDS011;11809;56.390;-3.266;2023-04-24T02:02:44;0.70;;;0.63;;
23280;SDS011;11809;56.390;-3.266;2023-04-24T02:05:14;1.05;;;0.60;;
23280;SDS011;11809;56.390;-3.266;2023-04-24T02:07:41;1.70;;;0.70;;
23280;SDS011;11809;56.390;-3.266;2023-04-24T02:10:08;4.15;;;0.80;;
23280;SDS011;11809;56.390;-3.266;2023-04-24T02:12:36;0.98;;;0.60;;
23280;SDS011;11809;56.390;-3.266;2023-04-24T02:15:03;1.17;;;0.60;;
23280;SDS011;11809;56.390;-3.266;2023-04-24T02:17:30;2.95;;;0.70;;
23280;SDS011;11809;56.390;-3.266;2023-04-24T02:19:58;1.67;;;0.85;;
23280;SDS011;11809;56.390;-3.266;2023-04-24T02:22:24;1.60;;;0.80;;
23280;SDS011;11809;56.390;-3.266;2023-04-24T02:24:51;0.80;;;0.55;;
23280;SDS011;11809;56.390;-3.266;2023-04-24T02:27:18;1.95;;;0.65;;
23280;SDS011;11809;56.390;-3.266;2023-04-24T02:29:45;1.77;;;0.90;;
23280;SDS011;11809;56.390;-3.266;2023-04-24T02:32:12;1.27;;;0.73;;
23280;SDS011;11809;56.390;-3.266;2023-04-24T02:34:42;1.23;;;0.60;;
23280;SDS011;11809;56.390;-3.266;2023-04-24T02:37:09;2.00;;;0.80;;
23280;SDS011;11809;56.390;-3.266;2023-04-24T02:39:36;2.40;;;0.70;;
23280;SDS011;11809;56.390;-3.266;2023-04-24T02:42:03;2.22;;;0.68;;
23280;SDS011;11809;56.390;-3.266;2023-04-24T02:44:30;1.30;;;0.63;;
23280;SDS011;11809;56.390;-3.266;2023-04-24T02:46:57;0.93;;;0.60;;
23280;SDS011;11809;56.390;-3.266;2023-04-24T02:49:24;1.00;;;0.80;;
23280;SDS011;11809;56.390;-3.266;2023-04-24T02:51:51;1.08;;;0.70;;
23280;SDS011;11809;56.390;-3.266;2023-04-24T02:54:18;1.58;;;0.45;;
23280;SDS011;11809;56.390;-3.266;2023-04-24T02:56:45;2.17;;;0.70;;
23280;SDS011;11809;56.390;-3.266;2023-04-24T02:59:12;2.15;;;0.85;;
23280;SDS011;11809;56.390;-3.266;2023-04-24T03:01:38;1.75;;;0.80;;
23280;SDS011;11809;56.390;-3.266;2023-04-24T03:04:06;1.13;;;0.60;;
23280;SDS011;11809;56.390;-3.266;2023-04-24T03:06:33;0.52;;;0.50;;
23280;SDS011;11809;56.390;-3.266;2023-04-24T03:09:02;2.05;;;0.60;;
23280;SDS011;11809;56.390;-3.266;2023-04-24T03:11:30;1.27;;;0.68;;
23280;SDS011;11809;56.390;-3.266;2023-04-24T03:13:57;0.60;;;0.57;;
23280;SDS011;11809;56.390;-3.266;2023-04-24T03:16:24;3.05;;;0.77;;
23280;SDS011;11809;56.390;-3.266;2023-04-24T03:18:51;0.80;;;0.60;;
23280;SDS011;11809;56.390;-3.266;2023-04-24T03:21:18;0.80;;;0.55;;
23280;SDS011;11809;56.390;-3.266;2023-04-24T03:23:45;0.65;;;0.52;;
23280;SDS011;11809;56.390;-3.266;2023-04-24T03:26:12;1.73;;;0.68;;
23280;SDS011;11809;56.390;-3.266;2023-04-24T03:28:39;1.98;;;0.88;;
23280;SDS011;11809;56.390;-3.266;2023-04-24T03:31:07;1.33;;;0.70;;
23280;SDS011;11809;56.390;-3.266;2023-04-24T03:33:34;0.63;;;0.63;;
23280;SDS011;11809;56.390;-3.266;2023-04-24T03:36:02;1.23;;;0.50;;
23280;SDS011;11809;56.390;-3.266;2023-04-24T03:38:29;2.08;;;0.70;;
23280;SDS011;11809;56.390;-3.266;2023-04-24T03:40:56;1.95;;;0.60;;
23280;SDS011;11809;56.390;-3.266;2023-04-24T03:43:23;2.38;;;0.77;;
23280;SDS011;11809;56.390;-3.266;2023-04-24T03:45:50;1.52;;;0.60;;
23280;SDS011;11809;56.390;-3.266;2023-04-24T03:48:17;1.52;;;0.70;;
23280;SDS011;11809;56.390;-3.266;2023-04-24T03:50:44;1.08;;;0.60;;
23280;SDS011;11809;56.390;-3.266;2023-04-24T03:53:11;1.20;;;0.73;;
23280;SDS011;11809;56.390;-3.266;2023-04-24T03:55:38;0.90;;;0.52;;
23280;SDS011;11809;56.390;-3.266;2023-04-24T03:58:05;0.95;;;0.60;;
23280;SDS011;11809;56.390;-3.266;2023-04-24T04:00:32;0.60;;;0.50;;
23280;SDS011;11809;56.390;-3.266;2023-04-24T04:02:59;1.20;;;0.65;;
23280;SDS011;11809;56.390;-3.266;2023-04-24T04:05:27;1.48;;;0.60;;
23280;SDS011;11809;56.390;-3.266;2023-04-24T04:07:54;1.60;;;0.90;;
23280;SDS011;11809;56.390;-3.266;2023-04-24T04:10:21;1.40;;;0.80;;
23280;SDS011;11809;56.390;-3.266;2023-04-24T04:12:48;3.03;;;0.90;;
23280;SDS011;11809;56.390;-3.266;2023-04-24T04:15:15;2.08;;;0.70;;
23280;SDS011;11809;56.390;-3.266;2023-04-24T04:17:42;2.67;;;0.80;;
23280;SDS011;11809;56.390;-3.266;2023-04-24T04:20:09;1.77;;;0.65;;
23280;SDS011;11809;56.390;-3.266;2023-04-24T04:22:37;1.17;;;0.60;;
23280;SDS011;11809;56.390;-3.266;2023-04-24T04:25:04;1.80;;;0.60;;
23280;SDS011;11809;56.390;-3.266;2023-04-24T04:27:31;5.93;;;1.15;;
23280;SDS011;11809;56.390;-3.266;2023-04-24T04:29:58;17.30;;;1.77;;
23280;SDS011;11809;56.390;-3.266;2023-04-24T04:32:31;17.42;;;1.30;;
23280;SDS011;11809;56.390;-3.266;2023-04-24T04:35:00;34.22;;;2.17;;
23280;SDS011;11809;56.390;-3.266;2023-04-24T04:37:30;13.18;;;1.38;;
23280;SDS011;11809;56.390;-3.266;2023-04-24T04:39:57;15.90;;;1.23;;
23280;SDS011;11809;56.390;-3.266;2023-04-24T04:42:25;16.67;;;1.30;;
23280;SDS011;11809;56.390;-3.266;2023-04-24T04:44:53;12.43;;;1.10;;
23280;SDS011;11809;56.390;-3.266;2023-04-24T04:47:21;6.55;;;0.95;;
23280;SDS011;11809;56.390;-3.266;2023-04-24T04:49:51;10.07;;;0.90;;
23280;SDS011;11809;56.390;-3.266;2023-04-24T04:52:18;9.05;;;0.70;;
23280;SDS011;11809;56.390;-3.266;2023-04-24T04:54:45;5.50;;;0.85;;
23280;SDS011;11809;56.390;-3.266;2023-04-24T04:57:12;6.70;;;1.25;;
23280;SDS011;11809;56.390;-3.266;2023-04-24T04:59:39;5.00;;;1.00;;
23280;SDS011;11809;56.390;-3.266;2023-04-24T05:02:08;6.28;;;1.15;;
23280;SDS011;11809;56.390;-3.266;2023-04-24T05:04:35;3.25;;;1.20;;
23280;SDS011;11809;56.390;-3.266;2023-04-24T05:07:03;2.95;;;0.70;;
23280;SDS011;11809;56.390;-3.266;2023-04-24T05:09:30;1.63;;;0.70;;
23280;SDS011;11809;56.390;-3.266;2023-04-24T05:11:57;3.85;;;0.77;;
23280;SDS011;11809;56.390;-3.266;2023-04-24T05:14:24;4.30;;;0.70;;
23280;SDS011;11809;56.390;-3.266;2023-04-24T05:16:51;3.10;;;0.80;;
23280;SDS011;11809;56.390;-3.266;2023-04-24T05:19:18;15.40;;;1.63;;
23280;SDS011;11809;56.390;-3.266;2023-04-24T05:21:45;3.85;;;1.17;;
23280;SDS011;11809;56.390;-3.266;2023-04-24T05:24:12;4.15;;;0.93;;
23280;SDS011;11809;56.390;-3.266;2023-04-24T05:26:39;48.78;;;3.05;;
23280;SDS011;11809;56.390;-3.266;2023-04-24T05:29:06;54.58;;;3.10;;
23280;SDS011;11809;56.390;-3.266;2023-04-24T05:31:33;26.92;;;2.30;;
23280;SDS011;11809;56.390;-3.266;2023-04-24T05:34:01;24.48;;;2.53;;
23280;SDS011;11809;56.390;-3.266;2023-04-24T05:36:27;12.63;;;2.10;;
23280;SDS011;11809;56.390;-3.266;2023-04-24T05:38:54;24.38;;;1.95;;
23280;SDS011;11809;56.390;-3.266;2023-04-24T05:41:22;16.45;;;1.40;;
23280;SDS011;11809;56.390;-3.266;2023-04-24T05:43:49;23.63;;;2.03;;
23280;SDS011;11809;56.390;-3.266;2023-04-24T05:46:16;13.50;;;1.50;;
23280;SDS011;11809;56.390;-3.266;2023-04-24T05:48:43;15.55;;;1.40;;
23280;SDS011;11809;56.390;-3.266;2023-04-24T05:51:11;19.80;;;1.50;;
23280;SDS011;11809;56.390;-3.266;2023-04-24T05:53:38;14.20;;;1.63;;
23280;SDS011;11809;56.390;-3.266;2023-04-24T05:56:06;9.00;;;0.95;;
23280;SDS011;11809;56.390;-3.266;2023-04-24T05:58:34;14.57;;;1.67;;
23280;SDS011;11809;56.390;-3.266;2023-04-24T06:01:01;14.82;;;1.63;;
23280;SDS011;11809;56.390;-3.266;2023-04-24T06:03:29;15.13;;;1.35;;
23280;SDS011;11809;56.390;-3.266;2023-04-24T06:05:56;4.68;;;0.95;;
23280;SDS011;11809;56.390;-3.266;2023-04-24T06:08:23;5.63;;;1.00;;
23280;SDS011;11809;56.390;-3.266;2023-04-24T06:10:50;6.82;;;1.00;;
23280;SDS011;11809;56.390;-3.266;2023-04-24T06:13:17;5.88;;;0.80;;
23280;SDS011;11809;56.390;-3.266;2023-04-24T06:15:44;4.75;;;0.90;;
23280;SDS011;11809;56.390;-3.266;2023-04-24T06:18:11;13.85;;;1.42;;
23280;SDS011;11809;56.390;-3.266;2023-04-24T06:20:39;17.02;;;1.40;;
23280;SDS011;11809;56.390;-3.266;2023-04-24T06:23:06;8.32;;;1.33;;
23280;SDS011;11809;56.390;-3.266;2023-04-24T06:25:33;18.02;;;1.35;;
23280;SDS011;11809;56.390;-3.266;2023-04-24T06:28:01;23.50;;;1.90;;
23280;SDS011;11809;56.390;-3.266;2023-04-24T06:30:29;19.50;;;1.55;;
23280;SDS011;11809;56.390;-3.266;2023-04-24T06:32:56;7.40;;;1.17;;
23280;SDS011;11809;56.390;-3.266;2023-04-24T06:35:31;10.48;;;1.27;;
23280;SDS011;11809;56.390;-3.266;2023-04-24T06:37:58;9.38;;;0.90;;
23280;SDS011;11809;56.390;-3.266;2023-04-24T06:40:25;10.98;;;1.20;;
23280;SDS011;11809;56.390;-3.266;2023-04-24T06:42:52;10.38;;;1.20;;
23280;SDS011;11809;56.390;-3.266;2023-04-24T06:45:19;10.75;;;1.00;;
23280;SDS011;11809;56.390;-3.266;2023-04-24T06:47:46;7.78;;;1.35;;
23280;SDS011;11809;56.390;-3.266;2023-04-24T06:50:14;6.72;;;0.70;;
23280;SDS011;11809;56.390;-3.266;2023-04-24T06:52:41;7.97;;;0.85;;
23280;SDS011;11809;56.390;-3.266;2023-04-24T06:55:08;5.57;;;1.10;;
23280;SDS011;11809;56.390;-3.266;2023-04-24T06:57:36;3.38;;;0.70;;
23280;SDS011;11809;56.390;-3.266;2023-04-24T07:00:04;3.33;;;0.70;;
23280;SDS011;11809;56.390;-3.266;2023-04-24T07:02:33;4.10;;;0.70;;
23280;SDS011;11809;56.390;-3.266;2023-04-24T07:05:00;4.82;;;0.65;;
23280;SDS011;11809;56.390;-3.266;2023-04-24T07:07:27;4.40;;;0.90;;
23280;SDS011;11809;56.390;-3.266;2023-04-24T07:09:55;3.28;;;0.80;;
23280;SDS011;11809;56.390;-3.266;2023-04-24T07:12:23;2.83;;;0.70;;
23280;SDS011;11809;56.390;-3.266;2023-04-24T07:14:50;5.32;;;0.88;;
23280;SDS011;11809;56.390;-3.266;2023-04-24T07:17:17;2.53;;;1.05;;
23280;SDS011;11809;56.390;-3.266;2023-04-24T07:19:44;3.22;;;0.70;;
23280;SDS011;11809;56.390;-3.266;2023-04-24T07:22:12;3.53;;;0.70;;
23280;SDS011;11809;56.390;-3.266;2023-04-24T07:27:10;2.45;;;0.70;;
23280;SDS011;11809;56.390;-3.266;2023-04-24T07:29:38;2.88;;;0.50;;
23280;SDS011;11809;56.390;-3.266;2023-04-24T07:32:07;3.47;;;0.70;;
23280;SDS011;11809;56.390;-3.266;2023-04-24T07:34:35;3.42;;;0.75;;
23280;SDS011;11809;56.390;-3.266;2023-04-24T07:37:03;3.00;;;0.70;;
23280;SDS011;11809;56.390;-3.266;2023-04-24T07:39:30;3.13;;;0.82;;
23280;SDS011;11809;56.390;-3.266;2023-04-24T07:41:58;2.63;;;0.82;;
23280;SDS011;11809;56.390;-3.266;2023-04-24T07:44:25;2.13;;;0.60;;
23280;SDS011;11809;56.390;-3.266;2023-04-24T07:46:53;1.48;;;0.60;;
23280;SDS011;11809;56.390;-3.266;2023-04-24T07:49:20;1.75;;;0.55;;
23280;SDS011;11809;56.390;-3.266;2023-04-24T07:51:48;1.63;;;0.60;;
23280;SDS011;11809;56.390;-3.266;2023-04-24T07:54:16;1.00;;;0.50;;
23280;SDS011;11809;56.390;-3.266;2023-04-24T07:56:43;2.65;;;0.80;;
23280;SDS011;11809;56.390;-3.266;2023-04-24T07:59:11;2.40;;;0.50;;
23280;SDS011;11809;56.390;-3.266;2023-04-24T08:01:38;3.50;;;0.75;;
23280;SDS011;11809;56.390;-3.266;2023-04-24T08:04:06;3.90;;;0.60;;
23280;SDS011;11809;56.390;-3.266;2023-04-24T08:06:33;3.47;;;0.70;;
23280;SDS011;11809;56.390;-3.266;2023-04-24T08:09:01;2.85;;;0.60;;
23280;SDS011;11809;56.390;-3.266;2023-04-24T08:11:31;2.88;;;0.65;;
23280;SDS011;11809;56.390;-3.266;2023-04-24T08:14:00;2.33;;;0.70;;
23280;SDS011;11809;56.390;-3.266;2023-04-24T08:16:27;1.30;;;0.60;;
23280;SDS011;11809;56.390;-3.266;2023-04-24T08:18:55;1.73;;;0.60;;
23280;SDS011;11809;56.390;-3.266;2023-04-24T08:21:22;1.73;;;0.68;;
23280;SDS011;11809;56.390;-3.266;2023-04-24T08:23:49;1.88;;;0.50;;
23280;SDS011;11809;56.390;-3.266;2023-04-24T08:26:16;7.60;;;0.80;;
23280;SDS011;11809;56.390;-3.266;2023-04-24T08:28:44;3.83;;;0.80;;
23280;SDS011;11809;56.390;-3.266;2023-04-24T08:31:11;2.70;;;0.63;;
23280;SDS011;11809;56.390;-3.266;2023-04-24T08:33:38;2.50;;;0.77;;
23280;SDS011;11809;56.390;-3.266;2023-04-24T08:36:05;2.05;;;0.60;;
23280;SDS011;11809;56.390;-3.266;2023-04-24T08:38:33;1.67;;;0.63;;
23280;SDS011;11809;56.390;-3.266;2023-04-24T08:41:00;0.80;;;0.50;;
23280;SDS011;11809;56.390;-3.266;2023-04-24T08:43:28;2.38;;;0.60;;
23280;SDS011;11809;56.390;-3.266;2023-04-24T08:45:56;3.53;;;0.85;;
23280;SDS011;11809;56.390;-3.266;2023-04-24T08:48:24;2.42;;;0.60;;
23280;SDS011;11809;56.390;-3.266;2023-04-24T08:50:57;2.38;;;0.60;;
23280;SDS011;11809;56.390;-3.266;2023-04-24T08:53:25;4.20;;;0.52;;
23280;SDS011;11809;56.390;-3.266;2023-04-24T08:55:54;1.92;;;0.73;;
23280;SDS011;11809;56.390;-3.266;2023-04-24T08:58:22;0.93;;;0.55;;
23280;SDS011;11809;56.390;-3.266;2023-04-24T09:00:55;2.33;;;0.55;;
23280;SDS011;11809;56.390;-3.266;2023-04-24T09:03:22;2.27;;;0.80;;
23280;SDS011;11809;56.390;-3.266;2023-04-24T09:05:50;2.92;;;0.70;;
23280;SDS011;11809;56.390;-3.266;2023-04-24T09:08:19;1.80;;;0.70;;
23280;SDS011;11809;56.390;-3.266;2023-04-24T09:10:47;1.27;;;0.50;;
23280;SDS011;11809;56.390;-3.266;2023-04-24T09:13:16;0.88;;;0.50;;
23280;SDS011;11809;56.390;-3.266;2023-04-24T09:15:45;1.58;;;0.45;;
23280;SDS011;11809;56.390;-3.266;2023-04-24T09:18:12;0.70;;;0.60;;
23280;SDS011;11809;56.390;-3.266;2023-04-24T09:23:27;1.77;;;0.50;;
23280;SDS011;11809;56.390;-3.266;2023-04-24T09:25:56;1.45;;;0.60;;
23280;SDS011;11809;56.390;-3.266;2023-04-24T09:28:46;4.65;;;0.77;;
23280;SDS011;11809;56.390;-3.266;2023-04-24T09:31:13;2.53;;;0.80;;
23280;SDS011;11809;56.390;-3.266;2023-04-24T09:39:00;1.95;;;0.60;;
23280;SDS011;11809;56.390;-3.266;2023-04-24T09:41:28;3.58;;;0.63;;
23280;SDS011;11809;56.390;-3.266;2023-04-24T09:43:56;2.05;;;0.40;;
23280;SDS011;11809;56.390;-3.266;2023-04-24T09:46:30;1.73;;;0.43;;
23280;SDS011;11809;56.390;-3.266;2023-04-24T09:49:12;1.67;;;0.47;;
23280;SDS011;11809;56.390;-3.266;2023-04-24T09:51:42;1.00;;;0.50;;
23280;SDS011;11809;56.390;-3.266;2023-04-24T09:54:16;1.77;;;0.40;;
23280;SDS011;11809;56.390;-3.266;2023-04-24T09:56:47;2.53;;;0.50;;
23280;SDS011;11809;56.390;-3.266;2023-04-24T09:59:17;1.38;;;0.40;;
23280;SDS011;11809;56.390;-3.266;2023-04-24T10:01:46;2.22;;;0.50;;
23280;SDS011;11809;56.390;-3.266;2023-04-24T10:06:48;0.88;;;0.38;;
23280;SDS011;11809;56.390;-3.266;2023-04-24T10:09:18;0.80;;;0.40;;
23280;SDS011;11809;56.390;-3.266;2023-04-24T10:11:48;0.98;;;0.40;;
23280;SDS011;11809;56.390;-3.266;2023-04-24T10:14:17;1.00;;;0.50;;
23280;SDS011;11809;56.390;-3.266;2023-04-24T10:16:50;1.35;;;0.40;;
23280;SDS011;11809;56.390;-3.266;2023-04-24T10:19:19;0.93;;;0.50;;
23280;SDS011;11809;56.390;-3.266;2023-04-24T10:21:46;0.70;;;0.30;;
23280;SDS011;11809;56.390;-3.266;2023-04-24T10:24:14;2.05;;;0.50;;
23280;SDS011;11809;56.390;-3.266;2023-04-24T10:26:44;1.10;;;0.40;;
23280;SDS011;11809;56.390;-3.266;2023-04-24T10:29:12;0.93;;;0.40;;
23280;SDS011;11809;56.390;-3.266;2023-04-24T10:31:42;2.90;;;0.50;;
23280;SDS011;11809;56.390;-3.266;2023-04-24T10:34:13;1.53;;;0.40;;
23280;SDS011;11809;56.390;-3.266;2023-04-24T10:36:44;0.63;;;0.35;;
23280;SDS011;11809;56.390;-3.266;2023-04-24T10:39:14;1.05;;;0.35;;
23280;SDS011;11809;56.390;-3.266;2023-04-24T10:41:43;0.85;;;0.40;;
23280;SDS011;11809;56.390;-3.266;2023-04-24T10:44:14;0.70;;;0.40;;
23280;SDS011;11809;56.390;-3.266;2023-04-24T10:46:43;0.57;;;0.35;;
23280;SDS011;11809;56.390;-3.266;2023-04-24T10:49:12;0.93;;;0.40;;
23280;SDS011;11809;56.390;-3.266;2023-04-24T10:51:43;1.17;;;0.50;;
23280;SDS011;11809;56.390;-3.266;2023-04-24T10:59:45;1.58;;;0.32;;
23280;SDS011;11809;56.390;-3.266;2023-04-24T11:02:16;0.70;;;0.40;;
23280;SDS011;11809;56.390;-3.266;2023-04-24T11:04:45;1.27;;;0.50;;
23280;SDS011;11809;56.390;-3.266;2023-04-24T11:07:13;0.80;;;0.45;;
23280;SDS011;11809;56.390;-3.266;2023-04-24T11:09:40;1.10;;;0.40;;
23280;SDS011;11809;56.390;-3.266;2023-04-24T11:12:10;0.65;;;0.30;;
23280;SDS011;11809;56.390;-3.266;2023-04-24T11:15:01;2.30;;;0.40;;
23280;SDS011;11809;56.390;-3.266;2023-04-24T11:20:07;0.65;;;0.30;;
23280;SDS011;11809;56.390;-3.266;2023-04-24T11:22:53;1.80;;;0.30;;
23280;SDS011;11809;56.390;-3.266;2023-04-24T11:25:22;0.32;;;0.20;;
23280;SDS011;11809;56.390;-3.266;2023-04-24T11:27:49;0.55;;;0.38;;
23280;SDS011;11809;56.390;-3.266;2023-04-24T11:30:17;0.57;;;0.35;;
23280;SDS011;11809;56.390;-3.266;2023-04-24T11:32:52;1.58;;;0.50;;
23280;SDS011;11809;56.390;-3.266;2023-04-24T11:35:20;2.55;;;0.30;;
23280;SDS011;11809;56.390;-3.266;2023-04-24T11:37:52;1.27;;;0.40;;
23280;SDS011;11809;56.390;-3.266;2023-04-24T11:40:23;0.65;;;0.30;;
23280;SDS011;11809;56.390;-3.266;2023-04-24T11:42:53;1.07;;;0.30;;
23280;SDS011;11809;56.390;-3.266;2023-04-24T11:45:27;0.28;;;0.20;;
23280;SDS011;11809;56.390;-3.266;2023-04-24T11:47:56;0.90;;;0.28;;
23280;SDS011;11809;56.390;-3.266;2023-04-24T11:50:26;1.55;;;0.20;;
23280;SDS011;11809;56.390;-3.266;2023-04-24T11:52:54;0.80;;;0.50;;
23280;SDS011;11809;56.390;-3.266;2023-04-24T11:57:53;1.67;;;0.50;;
23280;SDS011;11809;56.390;-3.266;2023-04-24T12:03:04;2.20;;;0.40;;
23280;SDS011;11809;56.390;-3.266;2023-04-24T12:05:32;0.75;;;0.60;;
23280;SDS011;11809;56.390;-3.266;2023-04-24T12:08:01;2.22;;;0.73;;
23280;SDS011;11809;56.390;-3.266;2023-04-24T12:10:29;3.97;;;0.70;;
23280;SDS011;11809;56.390;-3.266;2023-04-24T12:12:58;2.05;;;0.70;;
23280;SDS011;11809;56.390;-3.266;2023-04-24T12:15:27;1.02;;;0.70;;
23280;SDS011;11809;56.390;-3.266;2023-04-24T12:17:55;1.30;;;0.63;;
23280;SDS011;11809;56.390;-3.266;2023-04-24T12:20:23;1.60;;;0.70;;
23280;SDS011;11809;56.390;-3.266;2023-04-24T12:22:54;1.88;;;0.50;;
23280;SDS011;11809;56.390;-3.266;2023-04-24T12:25:23;1.45;;;0.63;;
23280;SDS011;11809;56.390;-3.266;2023-04-24T12:27:55;0.98;;;0.65;;
23280;SDS011;11809;56.390;-3.266;2023-04-24T12:30:32;4.80;;;0.90;;
23280;SDS011;11809;56.390;-3.266;2023-04-24T12:33:02;5.27;;;0.90;;
23280;SDS011;11809;56.390;-3.266;2023-04-24T12:35:31;3.45;;;0.88;;
23280;SDS011;11809;56.390;-3.266;2023-04-24T12:38:06;3.33;;;0.80;;
23280;SDS011;11809;56.390;-3.266;2023-04-24T12:40:39;2.47;;;0.77;;
23280;SDS011;11809;56.390;-3.266;2023-04-24T12:43:14;3.38;;;0.95;;
23280;SDS011;11809;56.390;-3.266;2023-04-24T12:45:43;1.67;;;0.68;;
23280;SDS011;11809;56.390;-3.266;2023-04-24T12:48:12;1.13;;;0.90;;
23280;SDS011;11809;56.390;-3.266;2023-04-24T12:50:40;2.88;;;0.65;;
23280;SDS011;11809;56.390;-3.266;2023-04-24T12:53:11;2.20;;;0.82;;
23280;SDS011;11809;56.390;-3.266;2023-04-24T12:55:39;4.32;;;0.80;;
23280;SDS011;11809;56.390;-3.266;2023-04-24T12:58:06;2.00;;;0.77;;
23280;SDS011;11809;56.390;-3.266;2023-04-24T13:00:34;3.38;;;0.70;;
23280;SDS011;11809;56.390;-3.266;2023-04-24T13:03:01;1.92;;;0.70;;
23280;SDS011;11809;56.390;-3.266;2023-04-24T13:05:30;2.10;;;0.82;;
23280;SDS011;11809;56.390;-3.266;2023-04-24T13:07:57;1.98;;;0.85;;
23280;SDS011;11809;56.390;-3.266;2023-04-24T13:10:27;4.78;;;1.10;;
23280;SDS011;11809;56.390;-3.266;2023-04-24T13:12:54;1.52;;;0.90;;
23280;SDS011;11809;56.390;-3.266;2023-04-24T13:15:22;2.33;;;0.73;;
23280;SDS011;11809;56.390;-3.266;2023-04-24T13:17:49;1.50;;;0.80;;
23280;SDS011;11809;56.390;-3.266;2023-04-24T13:20:17;2.45;;;0.70;;
23280;SDS011;11809;56.390;-3.266;2023-04-24T13:22:44;1.63;;;0.70;;
23280;SDS011;11809;56.390;-3.266;2023-04-24T13:25:12;1.77;;;0.70;;
23280;SDS011;11809;56.390;-3.266;2023-04-24T13:27:39;1.48;;;0.77;;
23280;SDS011;11809;56.390;-3.266;2023-04-24T13:30:06;2.47;;;0.75;;
23280;SDS011;11809;56.390;-3.266;2023-04-24T13:32:34;3.50;;;0.77;;
23280;SDS011;11809;56.390;-3.266;2023-04-24T13:35:02;3.05;;;0.80;;
23280;SDS011;11809;56.390;-3.266;2023-04-24T13:37:30;3.90;;;0.90;;
23280;SDS011;11809;56.390;-3.266;2023-04-24T13:39:58;3.15;;;0.82;;
23280;SDS011;11809;56.390;-3.266;2023-04-24T13:42:26;1.45;;;0.77;;
23280;SDS011;11809;56.390;-3.266;2023-04-24T13:44:54;2.00;;;0.80;;
23280;SDS011;11809;56.390;-3.266;2023-04-24T13:47:22;2.13;;;0.70;;
23280;SDS011;11809;56.390;-3.266;2023-04-24T13:49:49;4.43;;;0.80;;
23280;SDS011;11809;56.390;-3.266;2023-04-24T13:52:17;5.07;;;0.98;;
23280;SDS011;11809;56.390;-3.266;2023-04-24T13:54:44;2.78;;;0.98;;
23280;SDS011;11809;56.390;-3.266;2023-04-24T13:57:13;1.30;;;0.80;;
23280;SDS011;11809;56.390;-3.266;2023-04-24T13:59:43;1.33;;;0.70;;
23280;SDS011;11809;56.390;-3.266;2023-04-24T14:02:11;1.58;;;0.50;;
23280;SDS011;11809;56.390;-3.266;2023-04-24T14:04:39;1.23;;;0.60;;
23280;SDS011;11809;56.390;-3.266;2023-04-24T14:07:07;2.67;;;0.60;;
23280;SDS011;11809;56.390;-3.266;2023-04-24T14:09:35;2.53;;;0.70;;
23280;SDS011;11809;56.390;-3.266;2023-04-24T14:12:02;1.83;;;0.80;;
23280;SDS011;11809;56.390;-3.266;2023-04-24T14:14:30;1.15;;;0.60;;
23280;SDS011;11809;56.390;-3.266;2023-04-24T14:16:57;1.27;;;0.55;;
23280;SDS011;11809;56.390;-3.266;2023-04-24T14:19:28;0.85;;;0.50;;
23280;SDS011;11809;56.390;-3.266;2023-04-24T14:21:55;1.35;;;0.50;;
23280;SDS011;11809;56.390;-3.266;2023-04-24T14:24:25;4.40;;;0.65;;
23280;SDS011;11809;56.390;-3.266;2023-04-24T14:26:53;1.65;;;0.60;;
23280;SDS011;11809;56.390;-3.266;2023-04-24T14:29:20;3.10;;;0.73;;
23280;SDS011;11809;56.390;-3.266;2023-04-24T14:31:47;1.38;;;0.50;;
23280;SDS011;11809;56.390;-3.266;2023-04-24T14:34:16;1.67;;;0.60;;
23280;SDS011;11809;56.390;-3.266;2023-04-24T14:36:47;2.22;;;1.00;;
23280;SDS011;11809;56.390;-3.266;2023-04-24T14:39:15;2.00;;;0.50;;
23280;SDS011;11809;56.390;-3.266;2023-04-24T14:41:42;4.65;;;1.33;;
23280;SDS011;11809;56.390;-3.266;2023-04-24T14:44:09;19.63;;;1.90;;
23280;SDS011;11809;56.390;-3.266;2023-04-24T14:46:37;16.52;;;1.42;;
23280;SDS011;11809;56.390;-3.266;2023-04-24T14:49:04;34.10;;;2.38;;
23280;SDS011;11809;56.390;-3.266;2023-04-24T14:51:31;93.75;;;6.38;;
23280;SDS011;11809;56.390;-3.266;2023-04-24T14:53:58;46.30;;;3.35;;
23280;SDS011;11809;56.390;-3.266;2023-04-24T14:56:26;65.63;;;3.63;;
23280;SDS011;11809;56.390;-3.266;2023-04-24T14:58:53;17.85;;;1.30;;
23280;SDS011;11809;56.390;-3.266;2023-04-24T15:01:21;10.32;;;1.10;;
23280;SDS011;11809;56.390;-3.266;2023-04-24T15:03:48;10.43;;;1.10;;
23280;SDS011;11809;56.390;-3.266;2023-04-24T15:06:16;13.90;;;1.42;;